Time;durP1;ratioP1;P1;durP2;ratioP2;P2;SDS_P1;SDS_P2;PMS_P1;PMS_P2;Temp;Humidity;BMP_temperature;BMP_pressure;BME280_temperature;BME280_humidity;BME280_pressure;Samples;Min_cycle;Max_cycle;Signal;HPM_P1;HPM_P2
2022/05/29 00:00:52;;;;;;;9.65;8.82;;;;;;;23.78;37.74;99732.47;5075576;28;20095;-66
2022/05/29 00:03:20;;;;;;;9.20;8.32;;;;;;;23.78;38.01;99726.78;5090507;28;20489;-66
2022/05/29 00:05:48;;;;;;;10.02;9.23;;;;;;;23.72;38.21;99729.16;5077740;28;20040;-66
2022/05/29 00:08:24;;;;;;;10.23;9.23;;;;;;;23.70;38.15;99723.03;5085963;28;20094;-67
2022/05/29 00:10:53;;;;;;;10.07;9.30;;;;;;;23.51;38.58;99695.50;5092979;28;20582;-66
2022/05/29 00:13:20;;;;;;;15.43;10.00;;;;;;;23.57;38.83;99727.31;5092350;28;20096;-67
2022/05/29 00:15:48;;;;;;;10.20;8.88;;;;;;;23.14;39.84;99669.78;5090579;28;20538;-67
2022/05/29 00:18:15;;;;;;;15.82;9.27;;;;;;;23.41;39.95;99731.19;5086540;28;20048;-66
2022/05/29 00:20:46;;;;;;;13.63;9.98;;;;;;;23.33;40.36;99723.78;5091245;28;20139;-66
2022/05/29 00:23:14;;;;;;;12.63;10.18;;;;;;;23.06;41.31;99702.25;5093738;28;20048;-67
2022/05/29 00:25:44;;;;;;;13.60;10.10;;;;;;;23.02;42.14;99707.91;5092784;28;20566;-67
2022/05/29 00:28:11;;;;;;;12.85;8.75;;;;;;;23.03;42.94;99717.25;5096548;28;20123;-67
2022/05/29 00:30:38;;;;;;;9.88;8.85;;;;;;;23.06;42.77;99717.28;5090578;28;20139;-68
2022/05/29 00:33:05;;;;;;;10.35;9.35;;;;;;;23.01;43.19;99711.97;5074414;28;20044;-68
2022/05/29 00:35:32;;;;;;;12.77;9.15;;;;;;;22.90;43.48;99688.97;5087293;28;20139;-69
2022/05/29 00:38:00;;;;;;;12.50;9.63;;;;;;;22.93;43.86;99704.50;5074888;28;20084;-67
2022/05/29 00:40:41;;;;;;;9.98;9.07;;;;;;;22.91;43.56;99686.97;5079024;28;20109;-66
2022/05/29 00:43:08;;;;;;;9.88;9.02;;;;;;;23.03;44.27;99711.56;5085745;28;20134;-67
2022/05/29 00:45:48;;;;;;;10.32;8.57;;;;;;;22.95;43.75;99693.56;5081047;28;20054;-67
2022/05/29 00:48:19;;;;;;;14.55;9.40;;;;;;;22.99;44.64;99691.56;5085360;28;20052;-65
2022/05/29 00:50:49;;;;;;;10.57;9.75;;;;;;;22.96;45.37;99692.34;5085815;28;20083;-67
2022/05/29 00:53:16;;;;;;;13.35;9.55;;;;;;;22.84;45.58;99689.72;5080026;28;20480;-67
2022/05/29 00:55:50;;;;;;;10.52;9.30;;;;;;;22.82;45.93;99689.25;5085724;28;20048;-66
2022/05/29 00:58:21;;;;;;;15.75;9.15;;;;;;;22.80;46.23;99686.78;5089005;28;20080;-66
2022/05/29 01:00:49;;;;;;;10.65;9.32;;;;;;;22.78;46.86;99697.75;5083032;28;20466;-67
2022/05/29 01:03:16;;;;;;;13.23;12.13;;;;;;;22.69;46.97;99697.19;5075616;28;20119;-66
2022/05/29 01:05:43;;;;;;;13.75;9.73;;;;;;;22.65;47.58;99696.34;5075402;28;20458;-67
2022/05/29 01:08:20;;;;;;;12.32;8.85;;;;;;;22.53;48.09;99690.84;5077100;28;20458;-66
2022/05/29 01:10:50;;;;;;;13.43;9.75;;;;;;;22.41;48.82;99695.56;5087716;28;20421;-66
2022/05/29 01:13:38;;;;;;;15.40;8.85;;;;;;;22.32;48.67;99692.13;5074929;28;20127;-67
2022/05/29 01:16:31;;;;;;;21.65;10.55;;;;;;;22.25;48.85;99689.19;5087304;28;20191;-68
2022/05/29 01:19:32;;;;;;;11.38;10.10;;;;;;;22.20;49.36;99689.50;5074149;28;20072;-67
2022/05/29 01:22:08;;;;;;;11.32;8.93;;;;;;;22.14;50.07;99682.47;5094851;28;20138;-67
2022/05/29 01:24:56;;;;;;;11.98;10.52;;;;;;;22.24;50.36;99694.06;5089027;28;20146;-67
2022/05/29 01:27:47;;;;;;;11.63;10.52;;;;;;;21.92;49.83;99652.84;5088807;28;20079;-67
2022/05/29 01:30:23;;;;;;;12.55;9.57;;;;;;;22.08;50.48;99681.13;5093213;28;20514;-66
2022/05/29 01:33:34;;;;;;;13.07;10.57;;;;;;;21.88;50.63;99675.53;5090209;28;20075;-67
2022/05/29 01:36:04;;;;;;;12.35;10.23;;;;;;;21.82;51.43;99664.84;5077641;28;20139;-66
2022/05/29 01:38:45;;;;;;;14.68;10.77;;;;;;;21.90;51.70;99683.66;5075861;28;20072;-67
2022/05/29 01:41:36;;;;;;;16.15;10.75;;;;;;;21.80;51.83;99676.59;5078142;28;20069;-66
2022/05/29 01:44:12;;;;;;;16.67;12.43;;;;;;;21.82;52.26;99667.69;5080399;28;20148;-66
2022/05/29 01:46:42;;;;;;;17.77;12.35;;;;;;;21.69;52.68;99670.69;5086482;28;20502;-67
2022/05/29 01:49:25;;;;;;;13.85;11.80;;;;;;;21.76;52.77;99661.50;5089587;28;20131;-68
2022/05/29 01:51:59;;;;;;;17.60;11.98;;;;;;;21.73;53.18;99665.91;5076745;28;20132;-68
2022/05/29 01:54:35;;;;;;;21.20;11.50;;;;;;;21.73;53.14;99673.63;5075010;28;20117;-68
2022/05/29 01:57:19;;;;;;;24.48;11.85;;;;;;;21.56;53.57;99663.53;5073577;28;20127;-67
2022/05/29 01:59:49;;;;;;;15.90;11.30;;;;;;;21.68;53.83;99688.97;5076865;28;20135;-68
2022/05/29 02:02:21;;;;;;;17.15;11.85;;;;;;;21.61;53.97;99679.50;5090643;28;20082;-66
2022/05/29 02:04:53;;;;;;;11.70;10.50;;;;;;;21.58;54.20;99680.22;5089562;28;20051;-66
2022/05/29 02:10:14;;;;;;;;;;;;;;;21.31;54.36;99677.22;5074305;28;20701;-68
2022/05/29 02:12:49;;;;;;;11.70;10.57;;;;;;;21.43;54.20;99679.94;5092101;28;19927;-69
2022/05/29 02:15:22;;;;;;;12.13;9.95;;;;;;;21.42;54.67;99666.94;5080280;28;20075;-68
2022/05/29 02:17:56;;;;;;;12.07;10.70;;;;;;;21.42;54.78;99678.28;5083312;28;20127;-67
2022/05/29 02:20:28;;;;;;;12.18;10.88;;;;;;;21.41;54.70;99670.16;5092019;28;20142;-67
2022/05/29 02:22:59;;;;;;;15.35;12.52;;;;;;;21.36;55.13;99668.44;5080821;28;20048;-67
2022/05/29 02:25:28;;;;;;;13.65;11.23;;;;;;;21.33;55.24;99665.47;5091627;28;20051;-67
2022/05/29 02:28:01;;;;;;;13.35;11.63;;;;;;;21.23;55.35;99647.03;5075637;28;20114;-66
2022/05/29 02:30:38;;;;;;;14.60;13.18;;;;;;;21.30;55.39;99652.88;5078012;28;20118;-65
2022/05/29 02:33:28;;;;;;;13.02;11.43;;;;;;;21.37;54.95;99658.72;5087768;28;20135;-65
2022/05/29 02:36:25;;;;;;;;;;;;;;;21.28;54.57;99649.59;5082366;28;20127;-65
2022/05/29 02:39:00;;;;;;;14.43;11.82;;;;;;;21.47;54.44;99654.44;5077367;28;19920;-65
2022/05/29 02:41:56;;;;;;;11.82;10.40;;;;;;;21.44;54.44;99644.66;5082734;28;20082;-66
2022/05/29 02:44:50;;;;;;;12.20;11.00;;;;;;;21.47;54.64;99646.75;5065434;28;20062;-66
2022/05/29 02:47:54;;;;;;;12.82;11.27;;;;;;;21.50;54.43;99650.84;5081906;28;20075;-66
2022/05/29 02:50:29;;;;;;;13.57;11.07;;;;;;;21.55;54.71;99649.72;5084329;28;20451;-66
2022/05/29 02:53:02;;;;;;;16.98;11.57;;;;;;;21.49;55.30;99640.69;5084263;28;20094;-66
2022/05/29 02:55:29;;;;;;;11.98;10.77;;;;;;;21.41;55.52;99644.59;5085658;28;20123;-66
2022/05/29 02:58:01;;;;;;;11.48;10.38;;;;;;;21.32;55.85;99633.44;5084529;28;20134;-65
2022/05/29 03:00:37;;;;;;;13.05;10.90;;;;;;;21.25;56.24;99633.28;5088590;28;20109;-65
2022/05/29 03:03:24;;;;;;;13.00;10.48;;;;;;;21.14;56.19;99626.59;5080862;28;20069;-66
2022/05/29 03:06:12;;;;;;;11.95;10.75;;;;;;;21.13;56.17;99625.75;5087899;28;20051;-66
2022/05/29 03:09:09;;;;;;;11.95;10.75;;;;;;;20.99;55.76;99575.19;5078165;28;20044;-65
2022/05/29 03:11:38;;;;;;;12.80;11.40;;;;;;;21.29;55.89;99619.97;5082985;28;20703;-66
2022/05/29 03:14:12;;;;;;;12.15;10.40;;;;;;;21.39;55.74;99619.41;5076451;28;20068;-66
2022/05/29 03:17:06;;;;;;;13.75;10.80;;;;;;;21.39;55.84;99610.88;5080129;28;20471;-66
2022/05/29 03:19:52;;;;;;;13.75;11.27;;;;;;;21.38;55.70;99620.59;5089691;28;20080;-66
2022/05/29 03:22:34;;;;;;;11.18;10.27;;;;;;;21.33;55.74;99615.19;5085955;28;20127;-66
2022/05/29 03:25:33;;;;;;;12.98;10.38;;;;;;;21.26;55.59;99615.91;5082017;28;20479;-67
2022/05/29 03:28:02;;;;;;;17.35;11.30;;;;;;;21.14;55.85;99586.84;5065409;28;20067;-66
2022/05/29 03:30:32;;;;;;;11.32;10.30;;;;;;;21.31;55.41;99609.06;5088725;28;20136;-66
2022/05/29 03:33:04;;;;;;;11.85;10.73;;;;;;;21.24;55.33;99574.88;5090467;28;20044;-66
2022/05/29 03:35:35;;;;;;;14.73;10.55;;;;;;;21.19;55.83;99589.34;5085451;28;20442;-65
2022/05/29 03:38:04;;;;;;;11.82;10.82;;;;;;;21.26;55.55;99595.16;5082975;28;20127;-67
2022/05/29 03:40:33;;;;;;;12.35;11.27;;;;;;;21.23;55.41;99578.88;5090474;28;20469;-67
2022/05/29 03:43:00;;;;;;;11.68;10.40;;;;;;;21.18;55.46;99587.72;5083030;28;20139;-67
2022/05/29 03:45:28;;;;;;;12.27;10.40;;;;;;;21.26;55.49;99596.00;5091158;28;20498;-67
2022/05/29 03:47:56;;;;;;;15.38;11.48;;;;;;;21.16;55.93;99590.09;5082785;28;20136;-65
2022/05/29 03:50:24;;;;;;;14.20;12.93;;;;;;;21.13;55.96;99582.34;5088364;28;20076;-66
2022/05/29 03:52:51;;;;;;;12.38;11.35;;;;;;;21.01;56.06;99569.13;5087212;28;20072;-64
2022/05/29 03:55:26;;;;;;;13.77;11.65;;;;;;;21.11;56.40;99591.25;5091225;28;20079;-66
2022/05/29 03:57:53;;;;;;;15.02;10.10;;;;;;;21.14;56.78;99601.84;5088598;28;20134;-65
2022/05/29 04:00:22;;;;;;;12.38;11.05;;;;;;;21.11;57.01;99599.75;5078205;28;20525;-65
2022/05/29 04:02:50;;;;;;;12.70;10.32;;;;;;;21.12;57.17;99606.25;5086252;28;20079;-65
2022/05/29 04:05:20;;;;;;;12.48;11.27;;;;;;;21.16;56.89;99602.31;5087641;28;20147;-66
2022/05/29 04:13:22;;;;;;;15.32;10.30;;;;;;;21.20;56.34;99588.19;5092995;28;20052;-67
2022/05/29 04:15:49;;;;;;;11.27;10.32;;;;;;;21.38;56.30;99616.94;5086517;28;20050;-67
2022/05/29 04:18:18;;;;;;;12.70;11.70;;;;;;;21.34;56.32;99599.84;5086201;28;20048;-67
2022/05/29 04:20:45;;;;;;;12.52;11.23;;;;;;;21.28;56.25;99607.00;5083751;28;20127;-67
2022/05/29 04:23:12;;;;;;;12.20;10.98;;;;;;;21.20;56.50;99608.06;5094579;28;20169;-68
2022/05/29 04:25:42;;;;;;;10.73;9.68;;;;;;;21.04;56.62;99591.91;5090512;28;20143;-67
2022/05/29 04:28:09;;;;;;;11.52;10.35;;;;;;;21.03;56.51;99601.63;5082842;28;20127;-67
2022/05/29 04:30:36;;;;;;;13.18;10.95;;;;;;;21.05;56.73;99610.56;5079255;28;20131;-67
2022/05/29 04:33:03;;;;;;;12.30;10.75;;;;;;;20.99;56.85;99597.06;5093975;28;20201;-67
2022/05/29 04:35:41;;;;;;;18.52;11.43;;;;;;;21.12;56.67;99606.25;5085305;28;20151;-66
2022/05/29 04:38:09;;;;;;;17.27;10.05;;;;;;;21.29;56.41;99617.97;5075166;28;20088;-67
2022/05/29 04:40:39;;;;;;;14.85;13.35;;;;;;;21.29;56.49;99619.97;5077129;28;20083;-68
2022/05/29 04:43:05;;;;;;;16.83;14.00;;;;;;;21.16;56.50;99602.31;5088259;28;20136;-67
2022/05/29 04:45:33;;;;;;;11.23;10.32;;;;;;;21.18;56.21;99602.72;5080227;28;20055;-66
2022/05/29 04:48:00;;;;;;;17.48;12.20;;;;;;;21.31;56.27;99628.94;5088794;28;20040;-67
2022/05/29 04:50:27;;;;;;;12.68;11.32;;;;;;;21.24;56.24;99638.16;5084072;28;20164;-64
2022/05/29 04:52:54;;;;;;;16.38;12.80;;;;;;;21.13;56.28;99634.28;5082255;28;20143;-65
2022/05/29 04:55:21;;;;;;;15.27;12.43;;;;;;;21.05;56.46;99638.97;5089865;28;20195;-65
2022/05/29 04:57:48;;;;;;;15.35;12.15;;;;;;;21.01;56.39;99623.06;5078545;28;20131;-64
2022/05/29 05:00:15;;;;;;;15.25;11.27;;;;;;;21.01;56.46;99632.41;5076394;28;20147;-65
2022/05/29 05:02:42;;;;;;;16.23;11.82;;;;;;;20.84;57.04;99621.50;5091941;28;20134;-65
2022/05/29 05:05:11;;;;;;;13.68;10.90;;;;;;;20.89;56.75;99629.72;5083534;28;20074;-67
2022/05/29 05:07:38;;;;;;;18.05;10.75;;;;;;;21.04;56.68;99645.84;5088007;28;20072;-68
2022/05/29 05:10:11;;;;;;;18.55;11.15;;;;;;;21.20;56.34;99644.97;5084413;28;20113;-66
2022/05/29 05:12:39;;;;;;;15.65;10.82;;;;;;;21.21;56.50;99643.75;5084716;28;20050;-67
2022/05/29 05:15:07;;;;;;;15.95;11.25;;;;;;;21.12;56.33;99641.13;5082000;28;20135;-66
2022/05/29 05:17:34;;;;;;;18.35;10.43;;;;;;;20.70;56.12;99578.63;5089442;28;20163;-66
2022/05/29 05:20:00;;;;;;;15.90;9.98;;;;;;;21.13;56.51;99653.31;5076803;28;20139;-67
2022/05/29 05:22:27;;;;;;;13.57;9.80;;;;;;;21.06;56.80;99657.66;5077233;28;20084;-67
2022/05/29 05:24:54;;;;;;;11.35;9.93;;;;;;;21.14;56.42;99660.66;5081388;28;20062;-66
2022/05/29 05:27:21;;;;;;;13.45;10.13;;;;;;;21.12;56.48;99663.03;5080762;28;20063;-69
2022/05/29 05:29:48;;;;;;;14.15;10.35;;;;;;;21.01;56.53;99665.63;5088151;28;20052;-69
2022/05/29 05:32:15;;;;;;;12.25;10.07;;;;;;;20.92;56.82;99677.22;5073662;28;20055;-68
2022/05/29 05:34:42;;;;;;;15.55;11.00;;;;;;;20.64;57.04;99666.03;5089768;28;20461;-68
2022/05/29 05:37:10;;;;;;;17.00;10.45;;;;;;;20.69;57.46;99670.63;5087311;28;20040;-67
2022/05/29 05:39:38;;;;;;;14.00;11.73;;;;;;;20.77;57.13;99680.94;5085159;28;20135;-69
2022/05/29 05:42:05;;;;;;;12.43;10.93;;;;;;;20.63;57.15;99661.56;5072835;28;20135;-68
2022/05/29 05:44:32;;;;;;;10.48;9.48;;;;;;;20.67;56.74;99661.66;5079004;28;20095;-66
2022/05/29 05:46:59;;;;;;;12.27;11.07;;;;;;;20.57;57.09;99661.03;5085875;28;20131;-67
2022/05/29 05:49:28;;;;;;;14.82;11.52;;;;;;;20.66;57.37;99677.03;5085987;28;20076;-67
2022/05/29 05:51:58;;;;;;;13.43;11.35;;;;;;;20.71;56.96;99688.06;5086523;28;20075;-67
2022/05/29 05:54:30;;;;;;;14.40;11.27;;;;;;;20.69;57.29;99681.97;5082065;28;20090;-65
2022/05/29 05:56:57;;;;;;;13.90;11.75;;;;;;;20.57;57.22;99661.03;5083066;28;20105;-66
2022/05/29 05:59:24;;;;;;;16.85;10.80;;;;;;;20.68;57.14;99683.13;5073243;28;20052;-68
2022/05/29 06:01:52;;;;;;;13.18;10.93;;;;;;;20.75;57.04;99686.97;5085665;28;20054;-67
2022/05/29 06:04:20;;;;;;;13.47;12.07;;;;;;;20.65;57.01;99669.69;5081198;28;20056;-69
2022/05/29 06:06:47;;;;;;;11.10;9.95;;;;;;;20.73;57.04;99680.84;5085809;28;20051;-68
2022/05/29 06:09:14;;;;;;;11.52;10.60;;;;;;;20.61;57.16;99680.13;5088788;28;20070;-68
2022/05/29 06:11:41;;;;;;;11.63;10.00;;;;;;;20.54;56.79;99644.72;5080502;28;20139;-67
2022/05/29 06:14:07;;;;;;;11.75;10.43;;;;;;;20.87;56.53;99691.69;5079246;28;20136;-69
2022/05/29 06:16:36;;;;;;;11.55;10.48;;;;;;;20.95;56.52;99692.66;5084618;28;20111;-68
2022/05/29 06:19:05;;;;;;;15.25;9.18;;;;;;;20.96;56.02;99672.44;5089446;28;20414;-68
2022/05/29 06:21:33;;;;;;;10.43;9.27;;;;;;;21.09;55.94;99692.16;5081621;28;20143;-67
2022/05/29 06:24:00;;;;;;;9.43;8.80;;;;;;;21.12;55.70;99694.25;5082651;28;20721;-67
2022/05/29 06:26:27;;;;;;;16.17;10.25;;;;;;;20.98;55.79;99681.41;5080104;28;20056;-67
2022/05/29 06:28:54;;;;;;;11.73;10.13;;;;;;;20.95;55.90;99676.47;5076981;28;20148;-67
2022/05/29 06:31:21;;;;;;;11.90;10.13;;;;;;;20.83;56.00;99656.75;5079511;28;20537;-67
2022/05/29 06:33:49;;;;;;;10.57;9.68;;;;;;;21.09;55.67;99678.78;5072432;28;20410;-67
2022/05/29 06:36:23;;;;;;;12.70;11.52;;;;;;;21.00;55.54;99659.16;5078488;28;20056;-68
2022/05/29 06:38:52;;;;;;;11.15;9.70;;;;;;;21.12;55.66;99674.38;5085410;28;20127;-68
2022/05/29 06:41:22;;;;;;;10.90;9.73;;;;;;;21.01;55.72;99669.31;5079481;28;20143;-67
2022/05/29 06:43:52;;;;;;;10.60;9.60;;;;;;;21.09;55.56;99677.97;5073554;28;20144;-67
2022/05/29 06:46:20;;;;;;;10.77;9.77;;;;;;;21.17;54.97;99686.28;5081028;28;20566;-68
2022/05/29 06:48:48;;;;;;;11.55;9.35;;;;;;;21.08;55.53;99690.53;5076545;28;20448;-67
2022/05/29 06:51:22;;;;;;;11.57;10.55;;;;;;;21.01;55.60;99683.50;5080704;28;20438;-68
2022/05/29 06:53:50;;;;;;;20.52;10.52;;;;;;;21.00;55.36;99662.00;5082947;28;20135;-67
2022/05/29 06:56:19;;;;;;;10.77;9.77;;;;;;;21.01;55.14;99663.63;5073676;28;20186;-67
2022/05/29 06:58:47;;;;;;;14.07;10.07;;;;;;;21.15;55.17;99688.66;5080814;28;20151;-68
2022/05/29 07:07:23;;;;;;;12.15;10.98;;;;;;;21.26;54.66;99669.00;5047259;28;20076;-67
2022/05/29 07:09:50;;;;;;;13.63;10.80;;;;;;;21.32;54.64;99681.72;5069285;28;20146;-68
2022/05/29 07:12:27;;;;;;;10.50;9.40;;;;;;;21.30;54.72;99686.97;5087764;28;20074;-67
2022/05/29 07:15:01;;;;;;;11.65;9.52;;;;;;;21.36;54.24;99676.94;5081092;28;20056;-65
2022/05/29 07:17:30;;;;;;;11.43;10.48;;;;;;;21.46;54.10;99684.84;5084856;28;20048;-67
2022/05/29 07:19:57;;;;;;;11.38;10.05;;;;;;;21.29;54.45;99665.41;5075633;28;20076;-68
2022/05/29 07:22:26;;;;;;;11.82;10.55;;;;;;;21.36;54.07;99661.94;5083425;28;20129;-66
2022/05/29 07:24:53;;;;;;;11.05;9.95;;;;;;;21.49;53.62;99672.75;5074636;28;20136;-68
2022/05/29 07:27:19;;;;;;;10.63;9.35;;;;;;;21.52;54.00;99691.06;5090954;28;20126;-68
2022/05/29 07:29:46;;;;;;;10.75;9.80;;;;;;;21.58;53.63;99680.22;5081989;28;20083;-68
2022/05/29 07:32:13;;;;;;;11.35;9.70;;;;;;;21.75;53.42;99685.44;5076738;28;20129;-68
2022/05/29 07:34:43;;;;;;;11.60;9.95;;;;;;;21.73;52.83;99682.13;5072760;28;20131;-66
2022/05/29 07:37:15;;;;;;;9.63;8.93;;;;;;;21.83;52.96;99681.50;5072694;28;20045;-68
2022/05/29 07:39:46;;;;;;;10.15;9.27;;;;;;;21.89;52.88;99684.88;5079299;28;20131;-68
2022/05/29 07:44:59;;;;;;;11.30;10.20;;;;;;;21.93;53.02;99691.44;5084301;28;20144;-68
2022/05/29 07:47:27;;;;;;;13.13;9.52;;;;;;;21.90;53.03;99687.31;5077029;28;20080;-66
2022/05/29 07:49:57;;;;;;;11.52;9.68;;;;;;;21.98;52.76;99686.28;5072932;28;20136;-67
2022/05/29 07:52:25;;;;;;;10.45;9.65;;;;;;;21.79;52.85;99680.63;5071966;28;20048;-67
2022/05/29 07:54:52;;;;;;;11.75;10.55;;;;;;;21.93;52.87;99703.63;5075891;28;20151;-67
2022/05/29 07:57:21;;;;;;;11.40;10.20;;;;;;;21.91;52.86;99688.97;5074571;28;20087;-66
2022/05/29 07:59:48;;;;;;;13.30;10.40;;;;;;;21.87;53.05;99678.75;5072237;28;20179;-66
2022/05/29 08:02:14;;;;;;;13.93;9.55;;;;;;;21.88;52.82;99680.38;5076979;28;20139;-67
2022/05/29 08:04:42;;;;;;;11.68;9.63;;;;;;;21.98;53.08;99682.59;5076524;28;20108;-68
2022/05/29 08:07:11;;;;;;;15.45;10.70;;;;;;;22.08;52.96;99686.81;5085079;28;20048;-66
2022/05/29 08:09:38;;;;;;;14.60;10.18;;;;;;;22.08;52.84;99693.31;5086152;28;20052;-67
2022/05/29 08:12:05;;;;;;;10.95;9.93;;;;;;;21.89;53.19;99674.31;5075960;28;20422;-67
2022/05/29 08:14:32;;;;;;;14.73;10.27;;;;;;;21.72;53.15;99652.09;5074399;28;20083;-67
2022/05/29 08:16:59;;;;;;;12.73;9.52;;;;;;;22.09;52.79;99697.00;5077606;28;20447;-67
2022/05/29 08:19:26;;;;;;;14.43;10.60;;;;;;;22.13;52.35;99686.53;5077565;28;20506;-67
2022/05/29 08:21:53;;;;;;;15.38;10.52;;;;;;;22.15;52.74;99692.66;5079054;28;20058;-68
2022/05/29 08:30:38;;;;;;;12.13;10.40;;;;;;;22.39;52.55;99692.28;5082951;28;20135;-69
2022/05/29 08:33:26;;;;;;;14.52;11.20;;;;;;;22.37;52.43;99693.88;5090175;28;20059;-68
2022/05/29 08:36:24;;;;;;;14.18;11.18;;;;;;;22.28;52.48;99699.78;5074904;28;20072;-68
2022/05/29 08:38:54;;;;;;;14.20;13.00;;;;;;;22.33;52.58;99699.50;5083869;28;20048;-69
2022/05/29 08:41:29;;;;;;;14.48;11.07;;;;;;;22.37;52.54;99694.69;5087025;28;20072;-69
2022/05/29 08:44:23;;;;;;;12.43;11.27;;;;;;;22.28;52.58;99691.25;5080995;28;20862;-68
2022/05/29 08:47:00;;;;;;;12.10;9.50;;;;;;;22.23;52.40;99694.44;5080917;28;20124;-69
2022/05/29 08:49:32;;;;;;;12.48;11.32;;;;;;;22.17;52.39;99699.63;5075289;28;20072;-68
2022/05/29 08:52:08;;;;;;;9.93;8.93;;;;;;;22.16;52.00;99700.81;5090023;28;20044;-69
2022/05/29 08:54:37;;;;;;;10.07;9.27;;;;;;;22.13;51.75;99707.25;5081639;28;20563;-69
2022/05/29 08:57:29;;;;;;;13.10;10.10;;;;;;;22.06;51.81;99698.59;5095010;28;20143;-70
2022/05/29 08:59:58;;;;;;;9.70;8.57;;;;;;;21.93;52.13;99671.53;5076022;28;20155;-70
2022/05/29 09:02:37;;;;;;;15.53;9.97;;;;;;;22.03;52.02;99678.63;5077834;28;20135;-68
2022/05/29 09:05:13;;;;;;;15.65;11.45;;;;;;;22.14;52.29;99696.69;5087846;28;20320;-69
2022/05/29 09:07:42;;;;;;;17.42;10.68;;;;;;;22.14;52.21;99683.28;5090240;28;20131;-69
2022/05/29 09:10:20;;;;;;;16.13;10.77;;;;;;;22.19;52.54;99705.75;5074613;28;20083;-70
2022/05/29 09:12:53;;;;;;;13.60;9.88;;;;;;;22.21;52.39;99694.81;5078236;28;20094;-69
2022/05/29 09:15:41;;;;;;;19.05;11.02;;;;;;;22.20;52.26;99683.81;5086305;28;20048;-69
2022/05/29 09:18:23;;;;;;;19.63;11.27;;;;;;;22.25;52.27;99686.34;5093844;28;20047;-70
2022/05/29 09:21:13;;;;;;;26.27;10.77;;;;;;;22.38;52.18;99699.16;5079317;28;20439;-69
2022/05/29 09:23:46;;;;;;;13.38;10.05;;;;;;;22.16;52.38;99671.56;5075446;28;20475;-69
2022/05/29 09:26:18;;;;;;;16.48;10.95;;;;;;;22.29;52.68;99692.94;5088154;28;20127;-68
2022/05/29 09:28:46;;;;;;;12.45;11.18;;;;;;;22.15;52.38;99664.22;5073383;28;20521;-68
2022/05/29 09:31:17;;;;;;;12.60;10.80;;;;;;;22.46;52.27;99703.78;5072978;28;20132;-68
2022/05/29 09:33:46;;;;;;;25.17;17.80;;;;;;;22.48;52.43;99686.31;5077481;28;20131;-69
2022/05/29 09:37:02;;;;;;;16.83;10.90;;;;;;;22.65;51.89;99699.19;5076359;28;20049;-69
2022/05/29 09:39:36;;;;;;;12.80;9.88;;;;;;;22.56;51.79;99692.94;5080513;28;20139;-69
2022/05/29 09:42:26;;;;;;;11.48;9.63;;;;;;;22.45;51.81;99684.22;5089909;28;20052;-70
2022/05/29 09:45:12;;;;;;;11.63;10.40;;;;;;;22.80;51.65;99711.59;5092152;28;20139;-69
2022/05/29 09:50:36;;;;;;;10.20;9.20;;;;;;;22.71;51.44;99698.47;5074077;28;20088;-69
2022/05/29 09:53:10;;;;;;;12.32;10.93;;;;;;;22.77;51.31;99679.03;5084406;28;20087;-69
2022/05/29 09:55:37;;;;;;;15.68;9.50;;;;;;;22.98;51.12;99709.06;5078894;28;20063;-70
2022/05/29 09:58:09;;;;;;;10.23;9.38;;;;;;;22.90;50.70;99700.34;5081933;28;20076;-69
2022/05/29 10:00:52;;;;;;;10.57;9.55;;;;;;;22.87;50.78;99689.75;5088805;28;20490;-69
2022/05/29 10:03:39;;;;;;;12.77;11.65;;;;;;;23.02;50.78;99698.53;5081462;28;20101;-68
2022/05/29 10:06:17;;;;;;;13.27;11.80;;;;;;;23.16;50.46;99702.38;5093567;28;20083;-69
2022/05/29 10:08:45;;;;;;;12.83;11.40;;;;;;;23.17;50.23;99711.75;5087880;28;20131;-68
2022/05/29 10:11:21;;;;;;;14.20;12.77;;;;;;;23.25;50.35;99710.66;5087062;28;20087;-68
2022/05/29 10:13:50;;;;;;;14.35;9.73;;;;;;;23.28;50.27;99687.09;5080843;28;20131;-69
2022/05/29 10:16:43;;;;;;;11.52;9.27;;;;;;;23.39;49.97;99707.97;5079605;28;20048;-69
2022/05/29 10:19:16;;;;;;;14.43;12.98;;;;;;;23.51;50.03;99706.88;5083373;28;20452;-68
2022/05/29 10:21:50;;;;;;;13.43;11.70;;;;;;;23.51;49.54;99703.22;5080253;28;20128;-68
2022/05/29 10:24:23;;;;;;;11.15;10.00;;;;;;;23.46;49.43;99683.63;5081447;28;20047;-69
2022/05/29 10:26:55;;;;;;;10.40;9.30;;;;;;;23.51;49.79;99706.06;5086910;28;20080;-68
2022/05/29 10:29:42;;;;;;;12.00;9.20;;;;;;;23.30;49.49;99713.16;5085418;28;20108;-67
2022/05/29 10:32:20;;;;;;;11.48;10.43;;;;;;;23.31;49.93;99708.25;5078277;28;22345;-67
2022/05/29 10:34:48;;;;;;;12.85;8.57;;;;;;;23.18;49.87;99705.69;5076569;28;20094;-67
2022/05/29 10:37:42;;;;;;;11.20;9.88;;;;;;;22.96;49.57;99706.56;5072592;28;20079;-67
2022/05/29 10:40:33;;;;;;;10.68;9.57;;;;;;;22.77;49.98;99707.50;5085477;28;20467;-67
2022/05/29 10:43:03;;;;;;;10.13;8.88;;;;;;;22.94;49.70;99706.97;5081149;28;20052;-66
2022/05/29 10:45:42;;;;;;;9.48;8.52;;;;;;;23.10;49.92;99703.09;5077416;28;20056;-67
2022/05/29 10:48:27;;;;;;;14.05;8.90;;;;;;;23.10;49.94;99711.66;5087242;28;20044;-67
2022/05/29 10:51:06;;;;;;;11.13;8.88;;;;;;;23.00;49.72;99704.59;5085095;28;20135;-66
2022/05/29 10:53:45;;;;;;;12.88;8.75;;;;;;;23.00;49.72;99718.84;5079308;28;20168;-66
2022/05/29 10:56:21;;;;;;;10.25;7.90;;;;;;;22.87;49.99;99712.53;5071556;28;20084;-66
2022/05/29 10:59:15;;;;;;;11.45;9.13;;;;;;;22.85;50.01;99708.44;5078072;28;20093;-66
2022/05/29 11:05:16;;;;;;;9.80;8.23;;;;;;;22.87;49.82;99695.47;5073109;28;20123;-69
2022/05/29 11:08:18;;;;;;;9.60;8.68;;;;;;;22.99;49.57;99702.16;5052909;28;20155;-68
2022/05/29 11:11:09;;;;;;;9.40;8.55;;;;;;;22.91;49.21;99699.16;5068375;28;20143;-66
2022/05/29 11:13:55;;;;;;;11.27;10.38;;;;;;;22.82;49.13;99704.31;5071984;28;20071;-67
2022/05/29 11:17:03;;;;;;;10.93;9.80;;;;;;;22.69;49.44;99700.03;5072942;28;20051;-68
2022/05/29 11:20:16;;;;;;;9.93;8.75;;;;;;;22.73;49.25;99706.59;5052487;28;20530;-67
2022/05/29 11:22:58;;;;;;;9.20;8.25;;;;;;;22.65;49.32;99705.69;5071034;28;20070;-67
2022/05/29 11:25:49;;;;;;;9.95;8.57;;;;;;;22.53;49.13;99685.16;5073310;28;20143;-67
2022/05/29 11:28:43;;;;;;;11.98;8.80;;;;;;;22.72;49.17;99687.91;5076185;28;20139;-67
2022/05/29 11:31:43;;;;;;;13.45;8.73;;;;;;;22.74;49.26;99690.38;5075721;28;20049;-67
2022/05/29 11:34:19;;;;;;;9.43;8.70;;;;;;;22.78;49.03;99694.91;5077917;28;20127;-66
2022/05/29 11:36:48;;;;;;;12.88;9.32;;;;;;;22.73;48.87;99715.16;5088389;28;20139;-66
2022/05/29 11:39:35;;;;;;;;;;;;;;;22.68;49.15;99704.91;5083122;28;20135;-67
2022/05/29 11:42:17;;;;;;;9.32;8.38;;;;;;;22.71;48.84;99706.19;5068966;28;19951;-66
2022/05/29 11:44:57;;;;;;;9.55;8.85;;;;;;;22.64;48.73;99691.84;5074448;28;20072;-66
2022/05/29 11:53:39;;;;;;;9.73;8.35;;;;;;;23.00;48.48;99686.69;5095290;28;20455;-68
2022/05/29 11:56:42;;;;;;;9.30;8.55;;;;;;;23.04;48.19;99681.88;5096095;28;20147;-68
2022/05/29 11:59:15;;;;;;;11.10;9.38;;;;;;;23.06;48.21;99688.81;5058561;28;20076;-68
2022/05/29 12:01:49;;;;;;;16.83;7.43;;;;;;;23.11;48.31;99682.81;5077663;28;20052;-68
2022/05/29 12:04:27;;;;;;;10.15;7.40;;;;;;;23.09;48.09;99693.75;5084074;28;20130;-67
2022/05/29 12:07:06;;;;;;;10.98;9.77;;;;;;;23.00;48.24;99692.38;5088828;28;20052;-67
2022/05/29 12:09:59;;;;;;;12.65;8.43;;;;;;;23.00;48.19;99703.78;5073511;28;20072;-67
2022/05/29 12:12:32;;;;;;;12.07;11.18;;;;;;;22.86;48.00;99671.03;5075891;28;20644;-68
2022/05/29 12:15:07;;;;;;;10.57;9.77;;;;;;;22.97;48.05;99693.97;5076456;28;20507;-68
2022/05/29 12:17:44;;;;;;;10.55;9.48;;;;;;;23.02;47.92;99690.00;5071746;28;20135;-67
2022/05/29 12:20:34;;;;;;;11.13;9.25;;;;;;;23.05;47.87;99684.34;5074019;28;20156;-67
2022/05/29 12:23:10;;;;;;;16.73;9.60;;;;;;;23.16;47.61;99690.19;5072302;28;20072;-67
2022/05/29 12:26:06;;;;;;;10.70;9.40;;;;;;;23.12;47.66;99686.47;5082231;28;20163;-68
2022/05/29 12:28:59;;;;;;;13.57;12.52;;;;;;;23.19;47.63;99683.72;5076544;28;20048;-68
2022/05/29 12:31:40;;;;;;;10.32;9.30;;;;;;;23.38;47.48;99694.09;5087345;28;20136;-67